createdAt,value
2019-01-10T00:01:44.664Z,100.00
2019-01-10T00:04:14.085Z,100.00
2019-01-10T00:06:43.441Z,100.00
2019-01-10T00:09:12.896Z,100.00
2019-01-10T00:11:42.250Z,100.00
2019-01-10T00:14:11.599Z,100.00
2019-01-10T00:16:40.948Z,100.00
2019-01-10T00:19:10.296Z,100.00
2019-01-10T00:21:39.684Z,100.00
2019-01-10T00:24:09.016Z,100.00
2019-01-10T00:26:38.367Z,100.00
2019-01-10T00:29:07.726Z,100.00
2019-01-10T00:31:37.088Z,100.00
2019-01-10T00:34:06.434Z,100.00
2019-01-10T00:36:35.784Z,100.00
2019-01-10T00:39:07.462Z,100.00
2019-01-10T00:41:37.074Z,100.00
2019-01-10T00:44:06.469Z,100.00
2019-01-10T00:46:35.966Z,100.00
2019-01-10T00:49:05.378Z,100.00
2019-01-10T00:51:34.874Z,100.00
2019-01-10T00:54:04.338Z,100.00
2019-01-10T00:56:33.693Z,100.00
2019-01-10T00:59:03.041Z,100.00
2019-01-10T01:01:32.395Z,100.00
2019-01-10T01:04:01.856Z,100.00
2019-01-10T01:06:31.395Z,100.00
2019-01-10T01:09:00.728Z,100.00
2019-01-10T01:11:30.074Z,100.00
2019-01-10T01:13:59.420Z,100.00
2019-01-10T01:16:28.774Z,100.00
2019-01-10T01:18:58.110Z,100.00
2019-01-10T01:21:27.456Z,100.00
2019-01-10T01:23:56.796Z,100.00
2019-01-10T01:26:26.147Z,100.00
2019-01-10T01:28:55.488Z,100.00
2019-01-10T01:31:24.840Z,100.00
2019-01-10T01:33:54.176Z,100.00
2019-01-10T01:36:23.645Z,100.00
2019-01-10T01:38:53.079Z,100.00
2019-01-10T01:41:22.427Z,100.00
2019-01-10T01:43:51.838Z,100.00
2019-01-10T01:46:21.210Z,100.00
2019-01-10T01:48:50.636Z,100.00
2019-01-10T01:51:19.992Z,100.00
2019-01-10T01:53:49.330Z,100.00
2019-01-10T01:56:18.675Z,100.00
2019-01-10T01:58:48.101Z,100.00
2019-01-10T02:01:17.459Z,100.00
2019-01-10T02:03:46.910Z,100.00
2019-01-10T02:06:16.444Z,100.00
2019-01-10T02:08:45.778Z,100.00
2019-01-10T02:11:15.127Z,100.00
2019-01-10T02:13:44.479Z,100.00
2019-01-10T02:16:13.825Z,100.00
2019-01-10T02:18:43.168Z,100.00
2019-01-10T02:21:12.511Z,100.00
2019-01-10T02:23:41.852Z,100.00
2019-01-10T02:26:11.256Z,100.00
2019-01-10T02:28:40.671Z,100.00
2019-01-10T02:31:10.030Z,100.00
2019-01-10T02:33:39.398Z,100.00
2019-01-10T02:36:08.748Z,100.00
2019-01-10T02:38:38.231Z,100.00
2019-01-10T02:41:07.570Z,100.00
2019-01-10T02:43:36.919Z,100.00
2019-01-10T02:46:06.264Z,100.00
2019-01-10T02:48:35.634Z,100.00
2019-01-10T02:51:04.976Z,100.00
2019-01-10T02:53:34.327Z,100.00
2019-01-10T02:56:03.707Z,100.00
2019-01-10T02:58:33.020Z,100.00
2019-01-10T03:01:02.358Z,100.00
2019-01-10T03:03:31.695Z,100.00
2019-01-10T03:06:01.033Z,100.00
2019-01-10T03:08:30.385Z,100.00
2019-01-10T03:10:59.737Z,100.00
2019-01-10T03:13:36.500Z,100.00
2019-01-10T03:16:00.362Z,100.00
2019-01-10T03:18:29.740Z,100.00
2019-01-10T03:20:59.120Z,100.00
2019-01-10T03:23:28.789Z,100.00
2019-01-10T03:25:58.328Z,100.00
2019-01-10T03:28:27.719Z,100.00
2019-01-10T03:30:57.171Z,100.00
2019-01-10T03:33:26.775Z,100.00
2019-01-10T03:35:56.186Z,100.00
2019-01-10T03:38:25.780Z,100.00
2019-01-10T03:40:55.356Z,100.00
2019-01-10T03:43:24.896Z,100.00
2019-01-10T03:45:54.563Z,100.00
2019-01-10T03:48:23.971Z,100.00
2019-01-10T03:50:53.407Z,100.00
2019-01-10T03:53:22.897Z,100.00
2019-01-10T03:55:52.401Z,100.00
2019-01-10T03:58:21.940Z,100.00
2019-01-10T04:00:51.386Z,100.00
2019-01-10T04:03:20.944Z,100.00
2019-01-10T04:05:50.583Z,100.00
2019-01-10T04:08:20.266Z,100.00
2019-01-10T04:10:49.768Z,100.00
2019-01-10T04:13:19.219Z,100.00
2019-01-10T04:15:48.660Z,100.00
2019-01-10T04:18:18.179Z,100.00
2019-01-10T04:20:47.689Z,100.00
2019-01-10T04:23:17.105Z,100.00
2019-01-10T04:25:46.602Z,100.00
2019-01-10T04:28:16.137Z,100.00
2019-01-10T04:30:46.434Z,100.00
2019-01-10T04:33:15.975Z,100.00
2019-01-10T04:35:45.445Z,100.00
2019-01-10T04:38:14.938Z,100.00
2019-01-10T04:40:44.380Z,100.00
2019-01-10T04:43:13.942Z,100.00
2019-01-10T04:45:43.402Z,100.00
2019-01-10T04:48:13.036Z,100.00
2019-01-10T04:50:42.732Z,100.00
2019-01-10T04:53:12.267Z,100.00
2019-01-10T04:55:41.743Z,100.00
2019-01-10T04:58:11.364Z,100.00
2019-01-10T05:00:41.067Z,100.00
2019-01-10T05:03:10.525Z,100.00
2019-01-10T05:05:40.124Z,100.00
2019-01-10T05:08:09.608Z,100.00
2019-01-10T05:10:39.044Z,100.00
2019-01-10T05:13:08.546Z,100.00
2019-01-10T05:15:38.059Z,100.00
2019-01-10T05:18:08.171Z,100.00
2019-01-10T05:20:37.849Z,100.00
2019-01-10T05:23:07.388Z,100.00
2019-01-10T05:25:36.929Z,100.00
2019-01-10T05:28:06.354Z,100.00
2019-01-10T05:30:35.819Z,100.00
2019-01-10T05:33:05.321Z,100.00
2019-01-10T05:35:34.762Z,100.00
2019-01-10T05:38:04.199Z,100.00
2019-01-10T05:40:33.669Z,100.00
2019-01-10T05:43:03.115Z,100.00
2019-01-10T05:45:32.593Z,100.00
2019-01-10T05:48:02.017Z,100.00
2019-01-10T05:50:31.452Z,100.00
2019-01-10T05:53:00.924Z,100.00
2019-01-10T05:55:30.423Z,100.00
2019-01-10T05:57:59.833Z,100.00
2019-01-10T06:00:29.585Z,100.00
2019-01-10T06:02:59.697Z,100.00
2019-01-10T06:05:29.254Z,100.00
2019-01-10T06:07:58.797Z,100.00
2019-01-10T06:10:29.593Z,100.00
2019-01-10T06:12:59.467Z,100.00
2019-01-10T06:15:28.958Z,100.00
2019-01-10T06:17:58.467Z,100.00
2019-01-10T06:20:28.032Z,100.00
2019-01-10T06:22:57.609Z,100.00
2019-01-10T06:25:27.237Z,100.00
2019-01-10T06:27:56.708Z,100.00
2019-01-10T06:30:26.245Z,99.64
2019-01-10T06:32:55.928Z,99.64
2019-01-10T06:35:25.461Z,99.81
2019-01-10T06:37:54.957Z,99.40
2019-01-10T06:40:24.530Z,99.00
2019-01-10T06:42:54.057Z,98.65
2019-01-10T06:45:23.546Z,98.22
2019-01-10T06:47:53.161Z,98.35
2019-01-10T06:50:22.804Z,98.09
2019-01-10T06:52:52.249Z,97.89
2019-01-10T06:55:21.667Z,97.73
2019-01-10T06:57:51.275Z,97.04
2019-01-10T07:00:25.261Z,96.68
2019-01-10T07:02:55.288Z,96.68
2019-01-10T07:05:24.952Z,95.99
2019-01-10T07:07:56.752Z,95.95
2019-01-10T07:10:30.058Z,95.20
2019-01-10T07:12:59.654Z,94.78
2019-01-10T07:15:29.221Z,95.53
2019-01-10T07:17:58.873Z,95.58
2019-01-10T07:20:28.331Z,95.96
2019-01-10T07:22:57.902Z,95.72
2019-01-10T07:25:27.446Z,96.52
2019-01-10T07:27:57.029Z,96.43
2019-01-10T07:30:35.764Z,96.37
2019-01-10T07:32:59.056Z,96.20
2019-01-10T07:35:28.614Z,94.95
2019-01-10T07:37:58.308Z,94.30
2019-01-10T07:40:28.379Z,94.80
2019-01-10T07:42:57.981Z,96.75
2019-01-10T07:45:28.393Z,97.01
2019-01-10T07:47:57.906Z,97.20
2019-01-10T07:50:32.307Z,98.20
2019-01-10T07:53:02.112Z,97.52
2019-01-10T07:55:31.646Z,96.95
2019-01-10T07:58:01.055Z,97.29
2019-01-10T08:00:30.461Z,97.20
2019-01-10T08:03:00.004Z,97.39
2019-01-10T08:05:29.459Z,97.27
2019-01-10T08:07:58.877Z,96.73
2019-01-10T08:10:28.334Z,95.76
2019-01-10T08:12:57.823Z,94.65
2019-01-10T08:15:27.284Z,93.62
2019-01-10T08:17:56.687Z,93.38
2019-01-10T08:20:26.366Z,92.22
2019-01-10T08:22:55.774Z,90.58
2019-01-10T08:25:25.308Z,88.89
2019-01-10T08:27:54.741Z,88.32
2019-01-10T08:30:25.537Z,87.31
2019-01-10T08:32:55.056Z,85.71
2019-01-10T08:35:26.348Z,84.76
2019-01-10T08:37:55.859Z,83.00
2019-01-10T08:40:25.347Z,82.14
2019-01-10T08:42:54.852Z,81.64
2019-01-10T08:45:24.351Z,81.32
2019-01-10T08:47:53.880Z,81.28
2019-01-10T08:50:27.598Z,82.25
2019-01-10T08:52:57.175Z,82.58
2019-01-10T08:55:26.660Z,83.86
2019-01-10T08:57:56.292Z,84.47
2019-01-10T09:00:26.460Z,85.77
2019-01-10T09:02:56.232Z,85.84
2019-01-10T09:05:25.788Z,85.47
2019-01-10T09:07:55.264Z,84.62
2019-01-10T09:10:32.513Z,84.99
2019-01-10T09:13:01.935Z,84.16
2019-01-10T09:15:34.661Z,84.60
2019-01-10T09:18:02.688Z,83.21
2019-01-10T09:20:32.207Z,84.15
2019-01-10T09:23:01.649Z,84.15
2019-01-10T09:25:31.099Z,83.69
2019-01-10T09:28:00.532Z,82.56
2019-01-10T09:30:30.007Z,85.34
2019-01-10T09:32:59.504Z,85.79
2019-01-10T09:35:28.903Z,84.96
2019-01-10T09:37:58.291Z,84.78
2019-01-10T09:40:27.770Z,85.86
2019-01-10T09:42:57.200Z,86.31
2019-01-10T09:45:27.071Z,85.46
2019-01-10T09:47:56.664Z,85.13
2019-01-10T09:50:26.122Z,84.70
2019-01-10T09:52:55.601Z,83.84
2019-01-10T09:55:25.086Z,84.07
2019-01-10T09:57:54.576Z,83.37
2019-01-10T10:00:26.426Z,82.95
2019-01-10T10:02:55.944Z,82.96
2019-01-10T10:05:25.371Z,82.85
2019-01-10T10:07:54.831Z,83.24
2019-01-10T10:10:25.668Z,82.75
2019-01-10T10:12:55.116Z,81.37
2019-01-10T10:15:24.589Z,81.50
2019-01-10T10:17:53.963Z,81.51
2019-01-10T10:20:24.829Z,82.08
2019-01-10T10:22:54.478Z,82.77
2019-01-10T10:25:26.002Z,83.95
2019-01-10T10:27:55.181Z,84.88
2019-01-10T10:30:24.595Z,85.19
2019-01-10T10:32:53.983Z,84.35
2019-01-10T10:35:23.973Z,83.61
2019-01-10T10:37:53.433Z,83.73
2019-01-10T10:40:23.264Z,83.98
2019-01-10T10:42:53.303Z,83.88
2019-01-10T10:45:23.164Z,84.34
2019-01-10T10:47:52.633Z,84.76
2019-01-10T10:50:29.303Z,84.27
2019-01-10T10:52:58.813Z,82.76
2019-01-10T10:55:28.340Z,82.15
2019-01-10T10:57:57.763Z,81.86
2019-01-10T11:00:29.343Z,82.51
2019-01-10T11:02:58.771Z,82.18
2019-01-10T11:05:28.285Z,82.17
2019-01-10T11:07:57.787Z,82.43
2019-01-10T11:10:27.203Z,82.98
2019-01-10T11:12:56.589Z,83.13
2019-01-10T11:15:26.135Z,83.66
2019-01-10T11:17:55.699Z,85.08
2019-01-10T11:20:25.220Z,86.05
2019-01-10T11:22:55.141Z,86.20
2019-01-10T11:25:26.273Z,85.76
2019-01-10T11:27:56.039Z,86.04
2019-01-10T11:30:25.556Z,85.60
2019-01-10T11:32:55.164Z,84.83
2019-01-10T11:35:24.548Z,84.89
2019-01-10T11:37:53.976Z,84.86
2019-01-10T11:40:23.769Z,83.72
2019-01-10T11:42:53.263Z,83.30
2019-01-10T11:45:29.271Z,82.94
2019-01-10T11:47:58.787Z,81.73
2019-01-10T11:50:28.197Z,81.09
2019-01-10T11:52:57.592Z,80.88
2019-01-10T11:55:27.062Z,80.79
2019-01-10T11:57:56.566Z,81.01
2019-01-10T12:00:31.234Z,81.30
2019-01-10T12:03:02.262Z,81.81
2019-01-10T12:05:31.638Z,82.41
2019-01-10T12:08:01.095Z,83.23
2019-01-10T12:10:30.597Z,83.82
2019-01-10T12:13:00.066Z,83.14
2019-01-10T12:15:29.459Z,82.80
2019-01-10T12:17:58.888Z,83.11
2019-01-10T12:20:28.409Z,83.11
2019-01-10T12:22:57.963Z,82.02
2019-01-10T12:25:27.470Z,81.53
2019-01-10T12:27:56.967Z,81.81
2019-01-10T12:30:27.129Z,82.75
2019-01-10T12:32:56.661Z,83.71
2019-01-10T12:35:26.552Z,84.61
2019-01-10T12:37:56.171Z,85.19
2019-01-10T12:40:25.634Z,84.97
2019-01-10T12:42:55.189Z,85.19
2019-01-10T12:45:24.637Z,85.54
2019-01-10T12:47:54.046Z,85.86
2019-01-10T12:50:33.511Z,86.31
2019-01-10T12:53:10.059Z,86.98
2019-01-10T12:55:40.135Z,86.69
2019-01-10T12:58:09.894Z,86.60
2019-01-10T13:00:39.387Z,86.66
2019-01-10T13:03:08.793Z,87.37
2019-01-10T13:05:38.328Z,88.03
2019-01-10T13:08:07.836Z,88.22
2019-01-10T13:10:37.225Z,88.42
2019-01-10T13:13:06.858Z,88.75
2019-01-10T13:15:36.327Z,88.16
2019-01-10T13:18:05.911Z,88.69
2019-01-10T13:20:35.297Z,89.56
2019-01-10T13:23:04.831Z,90.19
2019-01-10T13:25:34.273Z,91.12
2019-01-10T13:28:03.662Z,90.95
2019-01-10T13:30:33.142Z,90.55
2019-01-10T13:33:02.579Z,91.06
2019-01-10T13:35:32.000Z,91.58
2019-01-10T13:38:01.403Z,91.52
2019-01-10T13:40:30.895Z,92.55
2019-01-10T13:43:00.271Z,92.59
2019-01-10T13:45:29.863Z,92.75
2019-01-10T13:47:59.652Z,93.00
2019-01-10T13:50:30.684Z,92.45
2019-01-10T13:53:00.253Z,92.52
2019-01-10T13:55:29.784Z,92.71
2019-01-10T13:57:59.390Z,92.26
2019-01-10T14:00:35.414Z,92.26
2019-01-10T14:03:01.968Z,92.03
2019-01-10T14:05:31.397Z,92.08
2019-01-10T14:08:00.800Z,92.22
2019-01-10T14:10:30.335Z,92.18
2019-01-10T14:12:59.920Z,92.03
2019-01-10T14:15:31.765Z,91.91
2019-01-10T14:18:01.258Z,91.87
2019-01-10T14:20:30.796Z,92.46
2019-01-10T14:23:00.186Z,92.82
2019-01-10T14:25:29.779Z,93.17
2019-01-10T14:27:59.810Z,93.59
2019-01-10T14:30:35.127Z,93.83
2019-01-10T14:33:04.799Z,94.14
2019-01-10T14:35:34.432Z,94.18
2019-01-10T14:38:04.075Z,93.96
2019-01-10T14:40:33.616Z,94.09
2019-01-10T14:43:03.177Z,94.57
2019-01-10T14:45:32.726Z,95.06
2019-01-10T14:48:02.250Z,95.59
2019-01-10T14:50:31.847Z,95.99
2019-01-10T14:53:01.295Z,96.05
2019-01-10T14:55:30.709Z,96.76
2019-01-10T14:58:00.074Z,97.31
2019-01-10T15:00:29.617Z,97.61
2019-01-10T15:02:59.154Z,97.84
2019-01-10T15:05:34.157Z,98.26
2019-01-10T15:07:59.992Z,98.91
2019-01-10T15:10:29.444Z,99.86
2019-01-10T15:12:58.991Z,100.00
2019-01-10T15:15:28.561Z,100.00
2019-01-10T15:17:58.217Z,100.00
2019-01-10T15:20:29.508Z,100.00
2019-01-10T15:22:59.008Z,100.00
2019-01-10T15:25:28.458Z,100.00
2019-01-10T15:27:57.909Z,100.00
2019-01-10T15:30:28.815Z,100.00
2019-01-10T15:32:58.398Z,100.00
2019-01-10T15:35:27.803Z,100.00
2019-01-10T15:37:57.370Z,100.00
2019-01-10T15:40:29.299Z,100.00
2019-01-10T15:42:58.737Z,100.00
2019-01-10T15:45:28.279Z,100.00
2019-01-10T15:47:57.769Z,100.00
2019-01-10T15:50:27.304Z,100.00
2019-01-10T15:52:56.773Z,100.00
2019-01-10T15:55:26.236Z,100.00
2019-01-10T15:57:55.704Z,100.00
2019-01-10T16:00:25.467Z,100.00
2019-01-10T16:02:54.945Z,100.00
2019-01-10T16:05:24.475Z,100.00
2019-01-10T16:07:53.908Z,100.00
2019-01-10T16:10:23.485Z,100.00
2019-01-10T16:12:53.053Z,100.00
2019-01-10T16:15:26.315Z,100.00
2019-01-10T16:17:55.549Z,100.00
2019-01-10T16:20:25.192Z,100.00
2019-01-10T16:22:54.661Z,100.00
2019-01-10T16:25:24.159Z,100.00
2019-01-10T16:27:53.619Z,100.00
2019-01-10T16:30:25.465Z,100.00
2019-01-10T16:32:55.046Z,100.00
2019-01-10T16:35:24.690Z,100.00
2019-01-10T16:37:54.196Z,100.00
2019-01-10T16:40:23.727Z,100.00
2019-01-10T16:42:53.264Z,100.00
2019-01-10T16:45:24.788Z,100.00
2019-01-10T16:47:54.271Z,100.00
2019-01-10T16:50:23.862Z,100.00
2019-01-10T16:52:53.955Z,100.00
2019-01-10T16:55:23.418Z,100.00
2019-01-10T16:57:52.978Z,100.00
2019-01-10T17:00:30.473Z,100.00
2019-01-10T17:04:00.132Z,100.00
2019-01-10T17:07:17.436Z,100.00
2019-01-10T17:09:46.996Z,100.00
2019-01-10T17:12:16.507Z,100.00
2019-01-10T17:14:46.069Z,100.00
2019-01-10T17:17:15.638Z,100.00
2019-01-10T17:19:45.173Z,100.00
2019-01-10T17:22:14.573Z,100.00
2019-01-10T17:24:44.153Z,100.00
2019-01-10T17:27:13.532Z,100.00
2019-01-10T17:29:42.945Z,100.00
2019-01-10T17:32:12.442Z,100.00
2019-01-10T17:34:41.961Z,100.00
2019-01-10T17:37:11.521Z,100.00
2019-01-10T17:39:40.965Z,100.00
2019-01-10T17:42:10.474Z,100.00
2019-01-10T17:44:39.908Z,100.00
2019-01-10T17:47:09.623Z,100.00
2019-01-10T17:49:39.210Z,100.00
2019-01-10T17:52:08.730Z,100.00
2019-01-10T17:54:38.504Z,100.00
2019-01-10T17:57:08.073Z,100.00
2019-01-10T17:59:37.566Z,100.00
2019-01-10T18:02:07.156Z,100.00
2019-01-10T18:04:36.810Z,100.00
2019-01-10T18:07:06.205Z,100.00
2019-01-10T18:09:35.738Z,100.00
2019-01-10T18:13:00.630Z,100.00
2019-01-10T18:16:18.784Z,100.00
2019-01-10T18:19:41.115Z,100.00
2019-01-10T18:22:21.058Z,100.00
2019-01-10T18:25:56.216Z,100.00
2019-01-10T18:28:25.716Z,100.00
2019-01-10T18:31:37.271Z,100.00
2019-01-10T18:34:06.861Z,100.00
2019-01-10T18:37:35.782Z,100.00
2019-01-10T18:41:05.556Z,100.00
2019-01-10T18:43:58.893Z,100.00
2019-01-10T18:47:36.094Z,100.00
2019-01-10T18:50:07.326Z,100.00
2019-01-10T18:53:54.977Z,100.00
2019-01-10T18:56:30.202Z,100.00
2019-01-10T19:00:00.758Z,100.00
2019-01-10T19:02:50.951Z,100.00
2019-01-10T19:05:57.319Z,100.00
2019-01-10T19:09:09.729Z,100.00
2019-01-10T19:11:39.342Z,100.00
2019-01-10T19:14:08.855Z,100.00
2019-01-10T19:16:38.278Z,100.00
2019-01-10T19:19:07.894Z,100.00
2019-01-10T19:21:37.506Z,100.00
2019-01-10T19:24:06.959Z,100.00
2019-01-10T19:26:36.443Z,100.00
2019-01-10T19:29:05.938Z,100.00
2019-01-10T19:31:35.493Z,100.00
2019-01-10T19:34:04.957Z,100.00
2019-01-10T19:36:34.617Z,100.00
2019-01-10T19:39:05.661Z,100.00
2019-01-10T19:41:35.163Z,100.00
2019-01-10T19:44:04.689Z,100.00
2019-01-10T19:46:34.387Z,100.00
2019-01-10T19:49:04.142Z,100.00
2019-01-10T19:51:33.646Z,100.00
2019-01-10T19:54:03.171Z,100.00
2019-01-10T19:56:32.602Z,100.00
2019-01-10T19:59:02.056Z,100.00
2019-01-10T20:01:31.681Z,100.00
2019-01-10T20:04:01.058Z,100.00
2019-01-10T20:06:32.684Z,100.00
2019-01-10T20:09:02.242Z,100.00
2019-01-10T20:11:31.887Z,100.00
2019-01-10T20:14:01.431Z,100.00
2019-01-10T20:16:31.115Z,100.00
2019-01-10T20:19:00.636Z,100.00
2019-01-10T20:21:30.156Z,100.00
2019-01-10T20:23:59.687Z,100.00
2019-01-10T20:26:29.271Z,100.00
2019-01-10T20:28:58.836Z,100.00
2019-01-10T20:31:28.778Z,100.00
2019-01-10T20:34:00.154Z,100.00
2019-01-10T20:36:29.643Z,100.00
2019-01-10T20:38:59.145Z,100.00
2019-01-10T20:41:31.755Z,100.00
2019-01-10T20:44:01.240Z,100.00
2019-01-10T20:46:30.838Z,100.00
2019-01-10T20:49:01.521Z,100.00
2019-01-10T20:51:31.118Z,100.00
2019-01-10T20:54:00.629Z,100.00
2019-01-10T20:56:30.269Z,100.00
2019-01-10T20:58:59.695Z,100.00
2019-01-10T21:01:29.422Z,100.00
2019-01-10T21:04:02.045Z,100.00
2019-01-10T21:06:31.672Z,100.00
2019-01-10T21:09:01.240Z,100.00
2019-01-10T21:11:30.850Z,100.00
2019-01-10T21:14:00.481Z,100.00
2019-01-10T21:16:29.998Z,100.00
2019-01-10T21:18:59.796Z,100.00
2019-01-10T21:21:32.287Z,100.00
2019-01-10T21:24:01.857Z,100.00
2019-01-10T21:26:31.349Z,100.00
2019-01-10T21:29:00.850Z,100.00
2019-01-10T21:31:30.562Z,100.00
2019-01-10T21:34:00.207Z,100.00
2019-01-10T21:36:29.890Z,100.00
2019-01-10T21:38:59.378Z,100.00
2019-01-10T21:41:31.699Z,100.00
2019-01-10T21:44:01.379Z,100.00
2019-01-10T21:46:30.990Z,100.00
2019-01-10T21:49:00.448Z,100.00
2019-01-10T21:51:32.820Z,100.00
2019-01-10T21:54:02.679Z,100.00
2019-01-10T21:56:32.208Z,100.00
2019-01-10T21:59:01.880Z,100.00
2019-01-10T22:01:31.529Z,100.00
2019-01-10T22:04:01.209Z,100.00
2019-01-10T22:06:30.637Z,100.00
2019-01-10T22:09:00.230Z,100.00
2019-01-10T22:11:29.728Z,100.00
2019-01-10T22:13:59.288Z,100.00
2019-01-10T22:16:29.186Z,100.00
2019-01-10T22:18:58.914Z,100.00
2019-01-10T22:21:28.396Z,100.00
2019-01-10T22:23:58.174Z,100.00
2019-01-10T22:26:27.782Z,100.00
2019-01-10T22:28:57.205Z,100.00
2019-01-10T22:31:26.661Z,100.00
2019-01-10T22:33:56.202Z,100.00
2019-01-10T22:36:25.633Z,100.00
2019-01-10T22:38:55.152Z,100.00
2019-01-10T22:41:24.717Z,100.00
2019-01-10T22:43:54.175Z,100.00
2019-01-10T22:46:23.693Z,100.00
2019-01-10T22:48:53.185Z,100.00
2019-01-10T22:51:22.720Z,100.00
2019-01-10T22:53:52.782Z,100.00
2019-01-10T22:56:22.363Z,100.00
2019-01-10T22:58:51.803Z,100.00
2019-01-10T23:01:45.962Z,100.00
2019-01-10T23:04:19.355Z,100.00
2019-01-10T23:06:49.054Z,100.00
2019-01-10T23:09:18.584Z,100.00
2019-01-10T23:11:48.161Z,100.00
2019-01-10T23:14:17.784Z,100.00
2019-01-10T23:16:47.248Z,100.00
2019-01-10T23:19:16.775Z,100.00
2019-01-10T23:21:46.382Z,100.00
2019-01-10T23:24:26.624Z,100.00
2019-01-10T23:26:55.149Z,100.00
2019-01-10T23:29:32.090Z,100.00
2019-01-10T23:32:06.418Z,100.00
2019-01-10T23:34:35.963Z,100.00
2019-01-10T23:37:05.468Z,100.00
2019-01-10T23:39:34.868Z,100.00
2019-01-10T23:42:04.301Z,100.00
2019-01-10T23:44:33.986Z,100.00
2019-01-10T23:47:03.656Z,100.00
2019-01-10T23:49:33.107Z,100.00
2019-01-10T23:52:02.565Z,100.00
2019-01-10T23:54:32.024Z,100.00
2019-01-10T23:57:01.471Z,100.00
2019-01-10T23:59:31.064Z,100.00
